createdAt,value
2018-03-23T00:00:37.195Z,0
2018-03-23T00:01:36.933Z,0
2018-03-23T00:02:36.919Z,0
2018-03-23T00:03:37.170Z,0
2018-03-23T00:04:36.896Z,0
2018-03-23T00:05:37.135Z,0
2018-03-23T00:06:36.878Z,0
2018-03-23T00:07:36.881Z,0
2018-03-23T00:08:37.117Z,0
2018-03-23T00:09:37.112Z,0
2018-03-23T00:10:37.084Z,0
2018-03-23T00:11:36.838Z,0
2018-03-23T00:12:37.071Z,0
2018-03-23T00:13:36.541Z,0
2018-03-23T00:14:37.057Z,0
2018-03-23T00:15:36.777Z,0
2018-03-23T00:16:36.774Z,0
2018-03-23T00:17:36.245Z,0
2018-03-23T00:18:36.542Z,0
2018-03-23T00:19:36.732Z,0
2018-03-23T00:20:36.718Z,0
2018-03-23T00:21:36.454Z,0
2018-03-23T00:22:36.957Z,0
2018-03-23T00:23:36.442Z,0
2018-03-23T00:24:36.671Z,0
2018-03-23T00:25:36.917Z,0
2018-03-23T00:26:36.705Z,0
2018-03-23T00:27:36.391Z,0
2018-03-23T00:28:36.375Z,0
2018-03-23T00:29:36.621Z,0
2018-03-23T00:30:36.617Z,0
2018-03-23T00:31:36.360Z,0
2018-03-23T00:32:36.581Z,0
2018-03-23T00:33:36.620Z,0
2018-03-23T00:34:36.316Z,0
2018-03-23T00:35:36.301Z,0
2018-03-23T00:36:36.799Z,0
2018-03-23T00:37:36.535Z,0
2018-03-23T00:38:36.769Z,0
2018-03-23T00:39:36.760Z,0
2018-03-23T00:40:36.510Z,0
2018-03-23T00:41:36.241Z,0
2018-03-23T00:42:36.228Z,0
2018-03-23T00:43:36.721Z,0
2018-03-23T00:44:36.703Z,0
2018-03-23T00:45:36.446Z,0
2018-03-23T00:46:36.684Z,0
2018-03-23T00:47:36.671Z,0
2018-03-23T00:48:36.659Z,0
2018-03-23T00:49:36.646Z,0
2018-03-23T00:50:36.400Z,0
2018-03-23T00:51:36.119Z,0
2018-03-23T00:52:36.360Z,0
2018-03-23T00:53:36.352Z,0
2018-03-23T00:54:36.593Z,0
2018-03-23T00:55:36.578Z,0
2018-03-23T00:56:36.566Z,0
2018-03-23T00:57:36.053Z,0
2018-03-23T00:58:36.550Z,0
2018-03-23T00:59:36.484Z,0
2018-03-23T01:00:36.271Z,0
2018-03-23T01:01:36.516Z,0
2018-03-23T01:02:36.259Z,0
2018-03-23T01:03:36.501Z,0
2018-03-23T01:04:36.250Z,0
2018-03-23T01:05:36.472Z,0
2018-03-23T01:06:36.625Z,0
2018-03-23T01:07:36.201Z,0
2018-03-23T01:08:36.448Z,0
2018-03-23T01:09:35.925Z,0
2018-03-23T01:10:36.159Z,0
2018-03-23T01:11:36.401Z,0
2018-03-23T01:12:36.387Z,0
2018-03-23T01:13:36.129Z,0
2018-03-23T01:14:36.293Z,0
2018-03-23T01:15:36.356Z,0
2018-03-23T01:16:36.352Z,0
2018-03-23T01:17:36.349Z,0
2018-03-23T01:18:36.326Z,0
2018-03-23T01:19:35.805Z,0
2018-03-23T01:20:36.344Z,0
2018-03-23T01:21:36.033Z,0
2018-03-23T01:22:36.280Z,0
2018-03-23T01:23:35.767Z,0
2018-03-23T01:24:36.262Z,0
2018-03-23T01:25:36.000Z,0
2018-03-23T01:26:36.233Z,0
2018-03-23T01:27:35.969Z,0
2018-03-23T01:28:36.208Z,0
2018-03-23T01:29:36.198Z,0
2018-03-23T01:30:36.195Z,0
2018-03-23T01:31:35.923Z,0
2018-03-23T01:32:36.171Z,0
2018-03-23T01:33:35.912Z,0
2018-03-23T01:34:36.154Z,0
2018-03-23T01:35:36.137Z,0
2018-03-23T01:36:36.210Z,0
2018-03-23T01:37:36.116Z,0
2018-03-23T01:38:35.853Z,0
2018-03-23T01:39:35.847Z,0
2018-03-23T01:40:35.331Z,0
2018-03-23T01:41:36.085Z,0
2018-03-23T01:42:36.056Z,0
2018-03-23T01:43:35.792Z,0
2018-03-23T01:44:36.034Z,0
2018-03-23T01:45:36.018Z,0
2018-03-23T01:46:35.768Z,0
2018-03-23T01:47:36.010Z,0
2018-03-23T01:48:35.988Z,0
2018-03-23T01:49:35.743Z,0
2018-03-23T01:50:35.714Z,0
2018-03-23T01:51:35.951Z,0
2018-03-23T01:52:35.944Z,0
2018-03-23T01:53:35.936Z,0
2018-03-23T01:54:35.690Z,0
2018-03-23T01:55:35.653Z,0
2018-03-23T01:56:35.907Z,0
2018-03-23T01:57:35.898Z,0
2018-03-23T01:58:35.881Z,0
2018-03-23T01:59:35.608Z,0
2018-03-23T02:00:35.351Z,0
2018-03-23T02:01:35.586Z,0
2018-03-23T02:02:35.836Z,0
2018-03-23T02:03:35.577Z,0
2018-03-23T02:04:35.811Z,0
2018-03-23T02:05:35.295Z,0
2018-03-23T02:06:35.832Z,0
2018-03-23T02:07:35.767Z,0
2018-03-23T02:08:35.792Z,0
2018-03-23T02:09:35.501Z,0
2018-03-23T02:10:35.747Z,0
2018-03-23T02:11:35.739Z,0
2018-03-23T02:12:35.461Z,0
2018-03-23T02:13:35.705Z,0
2018-03-23T02:14:35.697Z,0
2018-03-23T02:15:35.684Z,0
2018-03-23T02:16:35.173Z,0
2018-03-23T02:17:35.396Z,0
2018-03-23T02:18:35.389Z,0
2018-03-23T02:19:35.402Z,0
2018-03-23T02:20:35.107Z,0
2018-03-23T02:21:35.725Z,0
2018-03-23T02:22:35.592Z,0
2018-03-23T02:23:35.579Z,0
2018-03-23T02:24:35.571Z,0
2018-03-23T02:25:35.584Z,0
2018-03-23T02:26:35.539Z,0
2018-03-23T02:27:35.283Z,0
2018-03-23T02:28:35.523Z,0
2018-03-23T02:29:35.499Z,0
2018-03-23T02:30:35.519Z,0
2018-03-23T02:31:35.485Z,0
2018-03-23T02:32:35.220Z,0
2018-03-23T02:33:35.225Z,0
2018-03-23T02:34:35.204Z,0
2018-03-23T02:35:35.454Z,0
2018-03-23T02:36:35.422Z,0
2018-03-23T02:37:35.420Z,0
2018-03-23T02:38:35.148Z,0
2018-03-23T02:39:34.872Z,0
2018-03-23T02:40:35.378Z,0
2018-03-23T02:41:35.362Z,0
2018-03-23T02:42:35.352Z,0
2018-03-23T02:43:35.326Z,0
2018-03-23T02:44:35.074Z,0
2018-03-23T02:45:34.545Z,0
2018-03-23T02:46:35.301Z,0
2018-03-23T02:47:35.286Z,0
2018-03-23T02:48:35.274Z,0
2018-03-23T02:49:35.002Z,0
2018-03-23T02:50:35.265Z,0
2018-03-23T02:51:35.236Z,0
2018-03-23T02:52:34.455Z,0
2018-03-23T02:53:35.195Z,0
2018-03-23T02:54:35.211Z,0
2018-03-23T02:55:35.201Z,0
2018-03-23T02:56:34.904Z,0
2018-03-23T02:57:34.904Z,0
2018-03-23T02:58:35.143Z,0
2018-03-23T02:59:34.629Z,0
2018-03-23T03:00:34.875Z,0
2018-03-23T03:01:34.586Z,0
2018-03-23T03:02:34.838Z,0
2018-03-23T03:03:35.076Z,0
2018-03-23T03:04:35.078Z,0
2018-03-23T03:05:34.797Z,0
2018-03-23T03:06:34.776Z,0
2018-03-23T03:07:35.028Z,0
2018-03-23T03:08:34.753Z,0
2018-03-23T03:09:34.997Z,0
2018-03-23T03:10:34.975Z,0
2018-03-23T03:11:34.453Z,0
2018-03-23T03:12:34.947Z,0
2018-03-23T03:13:34.939Z,0
2018-03-23T03:14:34.421Z,0
2018-03-23T03:15:34.657Z,0
2018-03-23T03:16:34.392Z,0
2018-03-23T03:17:34.887Z,0
2018-03-23T03:18:34.359Z,0
2018-03-23T03:19:34.859Z,0
2018-03-23T03:20:34.866Z,0
2018-03-23T03:21:34.833Z,0
2018-03-23T03:22:34.566Z,0
2018-03-23T03:23:34.819Z,0
2018-03-23T03:24:34.798Z,0
2018-03-23T03:25:34.773Z,0
2018-03-23T03:26:34.509Z,0
2018-03-23T03:27:34.491Z,0
2018-03-23T03:28:34.731Z,0
2018-03-23T03:29:34.765Z,0
2018-03-23T03:30:34.729Z,0
2018-03-23T03:31:35.142Z,0
2018-03-23T03:32:34.691Z,0
2018-03-23T03:33:34.420Z,0
2018-03-23T03:34:34.154Z,0
2018-03-23T03:35:34.641Z,0
2018-03-23T03:36:34.424Z,0
2018-03-23T03:37:34.612Z,0
2018-03-23T03:38:34.357Z,0
2018-03-23T03:39:34.594Z,0
2018-03-23T03:40:34.322Z,0
2018-03-23T03:41:34.565Z,0
2018-03-23T03:42:34.295Z,0
2018-03-23T03:43:34.286Z,0
2018-03-23T03:44:34.272Z,0
2018-03-23T03:45:34.007Z,0
2018-03-23T03:46:34.496Z,0
2018-03-23T03:47:34.532Z,0
2018-03-23T03:48:34.485Z,0
2018-03-23T03:49:34.463Z,0
2018-03-23T03:50:34.443Z,0
2018-03-23T03:51:34.177Z,0
2018-03-23T03:52:34.166Z,0
2018-03-23T03:53:34.409Z,0
2018-03-23T03:54:34.150Z,0
2018-03-23T03:55:34.381Z,0
2018-03-23T03:56:34.370Z,0
2018-03-23T03:57:34.409Z,0
2018-03-23T03:58:33.840Z,0
2018-03-23T03:59:33.566Z,0
2018-03-23T04:00:34.077Z,0
2018-03-23T04:01:34.048Z,0
2018-03-23T04:02:34.287Z,0
2018-03-23T04:03:34.035Z,0
2018-03-23T04:04:34.005Z,0
2018-03-23T04:05:33.994Z,0
2018-03-23T04:06:33.982Z,0
2018-03-23T04:07:34.225Z,0
2018-03-23T04:08:34.209Z,0
2018-03-23T04:09:33.950Z,0
2018-03-23T04:10:34.190Z,0
2018-03-23T04:11:34.181Z,0
2018-03-23T04:12:33.904Z,0
2018-03-23T04:13:33.901Z,0
2018-03-23T04:14:33.879Z,0
2018-03-23T04:15:34.117Z,0
2018-03-23T04:16:34.126Z,0
2018-03-23T04:17:34.094Z,0
2018-03-23T04:18:34.080Z,0
2018-03-23T04:19:33.559Z,0
2018-03-23T04:20:34.055Z,0
2018-03-23T04:21:34.042Z,0
2018-03-23T04:22:33.782Z,0
2018-03-23T04:23:34.015Z,0
2018-03-23T04:24:33.505Z,0
2018-03-23T04:25:33.989Z,0
2018-03-23T04:26:33.982Z,0
2018-03-23T04:27:33.971Z,0
2018-03-23T04:28:33.955Z,0
2018-03-23T04:29:33.449Z,0
2018-03-23T04:30:33.931Z,0
2018-03-23T04:31:33.668Z,0
2018-03-23T04:32:33.901Z,0
2018-03-23T04:33:33.130Z,0
2018-03-23T04:34:33.876Z,0
2018-03-23T04:35:33.616Z,0
2018-03-23T04:36:33.868Z,0
2018-03-23T04:37:33.841Z,0
2018-03-23T04:38:33.572Z,0
2018-03-23T04:39:33.313Z,0
2018-03-23T04:40:33.288Z,0
2018-03-23T04:41:33.793Z,0
2018-03-23T04:42:33.780Z,0
2018-03-23T04:43:33.513Z,0
2018-03-23T04:44:33.750Z,0
2018-03-23T04:45:33.739Z,0
2018-03-23T04:46:33.732Z,0
2018-03-23T04:47:33.196Z,0
2018-03-23T04:48:33.696Z,0
2018-03-23T04:49:32.663Z,0
2018-03-23T04:50:33.664Z,0
2018-03-23T04:51:32.895Z,0
2018-03-23T04:52:33.634Z,0
2018-03-23T04:53:33.121Z,0
2018-03-23T04:54:33.102Z,0
2018-03-23T04:55:33.598Z,0
2018-03-23T04:56:33.078Z,0
2018-03-23T04:57:33.573Z,0
2018-03-23T04:58:33.567Z,0
2018-03-23T04:59:33.041Z,0
2018-03-23T05:00:33.024Z,0
2018-03-23T05:01:33.266Z,0
2018-03-23T05:02:33.513Z,0
2018-03-23T05:03:33.240Z,0
2018-03-23T05:04:33.490Z,0
2018-03-23T05:05:33.216Z,5
2018-03-23T05:06:33.213Z,5
2018-03-23T05:07:33.440Z,5
2018-03-23T05:08:32.941Z,5
2018-03-23T05:09:33.430Z,5
2018-03-23T05:10:33.152Z,5
2018-03-23T05:11:33.398Z,5
2018-03-23T05:12:33.136Z,5
2018-03-23T05:13:33.379Z,5
2018-03-23T05:14:33.105Z,5
2018-03-23T05:15:33.090Z,10
2018-03-23T05:16:33.327Z,10
2018-03-23T05:17:33.100Z,10
2018-03-23T05:18:32.812Z,10
2018-03-23T05:19:33.392Z,10
2018-03-23T05:20:33.033Z,10
2018-03-23T05:21:32.753Z,15
2018-03-23T05:22:32.996Z,15
2018-03-23T05:23:32.730Z,15
2018-03-23T05:24:32.722Z,15
2018-03-23T05:25:33.228Z,15
2018-03-23T05:26:33.197Z,15
2018-03-23T05:27:33.185Z,15
2018-03-23T05:28:32.414Z,20
2018-03-23T05:29:32.656Z,20
2018-03-23T05:30:32.933Z,20
2018-03-23T05:31:32.890Z,20
2018-03-23T05:32:32.614Z,25
2018-03-23T05:33:32.860Z,25
2018-03-23T05:34:32.846Z,25
2018-03-23T05:35:32.578Z,25
2018-03-23T05:36:32.819Z,25
2018-03-23T05:37:32.855Z,25
2018-03-23T05:38:32.547Z,30
2018-03-23T05:39:33.192Z,30
2018-03-23T05:40:32.770Z,30
2018-03-23T05:41:33.010Z,35
2018-03-23T05:42:33.001Z,35
2018-03-23T05:43:32.478Z,35
2018-03-23T05:44:32.720Z,35
2018-03-23T05:45:32.955Z,35
2018-03-23T05:46:32.504Z,35
2018-03-23T05:47:32.678Z,40
2018-03-23T05:48:32.919Z,40
2018-03-23T05:49:32.905Z,40
2018-03-23T05:50:32.654Z,40
2018-03-23T05:51:32.926Z,40
2018-03-23T05:52:32.623Z,45
2018-03-23T05:53:32.616Z,45
2018-03-23T05:54:32.084Z,50
2018-03-23T05:55:32.827Z,50
2018-03-23T05:56:32.312Z,45
2018-03-23T05:57:32.572Z,45
2018-03-23T05:58:32.544Z,45
2018-03-23T05:59:32.848Z,45
2018-03-23T06:00:32.780Z,50
2018-03-23T06:01:32.250Z,50
2018-03-23T06:02:32.761Z,45
2018-03-23T06:03:32.479Z,50
2018-03-23T06:04:32.719Z,50
2018-03-23T06:05:32.462Z,50
2018-03-23T06:06:32.802Z,50
2018-03-23T06:07:32.448Z,50
2018-03-23T06:08:32.694Z,50
2018-03-23T06:09:32.699Z,50
2018-03-23T06:10:32.412Z,50
2018-03-23T06:11:32.638Z,50
2018-03-23T06:12:32.373Z,50
2018-03-23T06:13:32.361Z,55
2018-03-23T06:14:32.425Z,55
2018-03-23T06:15:32.334Z,60
2018-03-23T06:16:32.078Z,60
2018-03-23T06:17:32.309Z,60
2018-03-23T06:18:32.553Z,60
2018-03-23T06:19:32.036Z,60
2018-03-23T06:20:32.284Z,60
2018-03-23T06:21:32.533Z,60
2018-03-23T06:22:32.012Z,65
2018-03-23T06:23:31.993Z,70
2018-03-23T06:24:32.489Z,70
2018-03-23T06:25:32.476Z,65
2018-03-23T06:26:31.964Z,60
2018-03-23T06:27:32.450Z,60
2018-03-23T06:28:32.439Z,55
2018-03-23T06:29:32.426Z,60
2018-03-23T06:30:32.180Z,65
2018-03-23T06:31:32.416Z,65
2018-03-23T06:32:32.390Z,65
2018-03-23T06:33:32.427Z,60
2018-03-23T06:34:32.384Z,65
2018-03-23T06:35:32.381Z,75
2018-03-23T06:36:32.344Z,70
2018-03-23T06:37:32.337Z,65
2018-03-23T06:38:32.065Z,70
2018-03-23T06:39:32.055Z,75
2018-03-23T06:40:31.809Z,85
2018-03-23T06:41:32.433Z,85
2018-03-23T06:42:32.030Z,80
2018-03-23T06:43:31.510Z,95
2018-03-23T06:44:32.018Z,115
2018-03-23T06:45:31.987Z,110
2018-03-23T06:46:32.225Z,110
2018-03-23T06:47:32.242Z,120
2018-03-23T06:48:31.995Z,130
2018-03-23T06:49:32.255Z,130
2018-03-23T06:50:31.928Z,130
2018-03-23T06:51:31.662Z,135
2018-03-23T06:52:31.923Z,140
2018-03-23T06:53:32.156Z,140
2018-03-23T06:54:31.711Z,150
2018-03-23T06:55:31.871Z,155
2018-03-23T06:56:31.872Z,165
2018-03-23T06:57:32.110Z,170
2018-03-23T06:58:32.090Z,145
2018-03-23T06:59:31.843Z,135
2018-03-23T07:00:31.811Z,130
2018-03-23T07:01:31.813Z,135
2018-03-23T07:02:31.793Z,155
2018-03-23T07:03:32.038Z,160
2018-03-23T07:04:32.020Z,160
2018-03-23T07:05:31.754Z,155
2018-03-23T07:06:31.769Z,160
2018-03-23T07:07:31.992Z,175
2018-03-23T07:08:32.002Z,180
2018-03-23T07:09:31.965Z,185
2018-03-23T07:10:31.953Z,190
2018-03-23T07:11:31.690Z,185
2018-03-23T07:12:31.688Z,180
2018-03-23T07:13:31.917Z,195
2018-03-23T07:14:31.149Z,195
2018-03-23T07:15:31.943Z,175
2018-03-23T07:16:31.927Z,165
2018-03-23T07:17:31.640Z,160
2018-03-23T07:18:31.866Z,165
2018-03-23T07:19:31.868Z,175
2018-03-23T07:20:31.598Z,175
2018-03-23T07:21:31.067Z,175
2018-03-23T07:22:31.828Z,185
2018-03-23T07:23:31.806Z,185
2018-03-23T07:24:31.854Z,185
2018-03-23T07:25:31.028Z,170
2018-03-23T07:26:31.299Z,160
2018-03-23T07:27:31.911Z,170
2018-03-23T07:28:31.291Z,165
2018-03-23T07:29:31.233Z,185
2018-03-23T07:30:30.984Z,210
2018-03-23T07:31:31.779Z,200
2018-03-23T07:32:31.511Z,195
2018-03-23T07:33:31.744Z,200
2018-03-23T07:34:31.711Z,215
2018-03-23T07:35:31.453Z,210
2018-03-23T07:36:31.420Z,190
2018-03-23T07:37:31.689Z,165
2018-03-23T07:38:31.160Z,155
2018-03-23T07:39:31.676Z,165
2018-03-23T07:40:31.417Z,185
2018-03-23T07:41:31.628Z,185
2018-03-23T07:42:31.841Z,195
2018-03-23T07:43:31.598Z,240
2018-03-23T07:44:31.608Z,290
2018-03-23T07:45:30.808Z,310
2018-03-23T07:46:31.615Z,315
2018-03-23T07:47:31.052Z,310
2018-03-23T07:48:31.046Z,300
2018-03-23T07:49:31.042Z,310
2018-03-23T07:50:31.290Z,305
2018-03-23T07:51:31.527Z,295
2018-03-23T07:52:31.523Z,300
2018-03-23T07:53:31.245Z,305
2018-03-23T07:54:31.237Z,285
2018-03-23T07:55:31.469Z,225
2018-03-23T07:56:31.210Z,215
2018-03-23T07:57:30.960Z,235
2018-03-23T07:58:30.927Z,235
2018-03-23T07:59:31.182Z,235
2018-03-23T08:00:31.190Z,255
2018-03-23T08:01:30.904Z,285
2018-03-23T08:02:30.926Z,285
2018-03-23T08:03:31.138Z,255
2018-03-23T08:04:31.157Z,200
2018-03-23T08:05:31.381Z,165
2018-03-23T08:06:31.597Z,145
2018-03-23T08:07:31.395Z,140
2018-03-23T08:08:31.367Z,140
2018-03-23T08:09:30.834Z,135
2018-03-23T08:10:31.113Z,130
2018-03-23T08:11:31.336Z,130
2018-03-23T08:12:31.322Z,135
2018-03-23T08:13:31.035Z,140
2018-03-23T08:14:31.046Z,145
2018-03-23T08:15:31.011Z,140
2018-03-23T08:16:31.018Z,140
2018-03-23T08:17:31.010Z,140
2018-03-23T08:18:31.024Z,140
2018-03-23T08:19:30.769Z,140
2018-03-23T08:20:31.003Z,150
2018-03-23T08:21:30.990Z,160
2018-03-23T08:22:30.722Z,160
2018-03-23T08:23:30.702Z,165
2018-03-23T08:24:30.695Z,185
2018-03-23T08:25:31.188Z,225
2018-03-23T08:26:30.656Z,245
2018-03-23T08:27:31.334Z,260
2018-03-23T08:28:31.151Z,290
2018-03-23T08:29:30.878Z,335
2018-03-23T08:30:31.169Z,365
2018-03-23T08:31:30.914Z,375
2018-03-23T08:32:30.853Z,380
2018-03-23T08:33:31.105Z,370
2018-03-23T08:34:30.572Z,350
2018-03-23T08:35:30.836Z,310
2018-03-23T08:36:31.171Z,265
2018-03-23T08:37:30.791Z,260
2018-03-23T08:38:31.041Z,260
2018-03-23T08:39:31.036Z,260
2018-03-23T08:40:31.049Z,260
2018-03-23T08:41:31.237Z,280
2018-03-23T08:42:31.025Z,290
2018-03-23T08:43:30.732Z,290
2018-03-23T08:44:30.794Z,295
2018-03-23T08:45:30.710Z,300
2018-03-23T08:46:30.691Z,300
2018-03-23T08:47:30.430Z,290
2018-03-23T08:48:30.680Z,275
2018-03-23T08:49:30.464Z,260
2018-03-23T08:50:30.712Z,250
2018-03-23T08:51:30.920Z,245
2018-03-23T08:52:30.892Z,245
2018-03-23T08:53:31.042Z,255
2018-03-23T08:54:30.906Z,270
2018-03-23T08:55:30.640Z,290
2018-03-23T08:56:30.865Z,285
2018-03-23T08:57:30.861Z,265
2018-03-23T08:58:30.566Z,260
2018-03-23T08:59:30.594Z,275
2018-03-23T09:00:30.810Z,285
2018-03-23T09:01:30.794Z,300
2018-03-23T09:02:30.783Z,310
2018-03-23T09:03:30.557Z,305
2018-03-23T09:04:30.545Z,300
2018-03-23T09:05:30.508Z,300
2018-03-23T09:06:30.811Z,310
2018-03-23T09:07:30.499Z,340
2018-03-23T09:08:30.725Z,370
2018-03-23T09:09:29.953Z,390
2018-03-23T09:10:30.764Z,385
2018-03-23T09:11:30.528Z,370
2018-03-23T09:12:30.740Z,350
2018-03-23T09:13:30.456Z,345
2018-03-23T09:14:30.422Z,350
2018-03-23T09:15:30.197Z,360
2018-03-23T09:16:30.680Z,360
2018-03-23T09:17:30.140Z,350
2018-03-23T09:18:30.421Z,335
2018-03-23T09:19:30.405Z,335
2018-03-23T09:20:30.344Z,345
2018-03-23T09:21:29.829Z,355
2018-03-23T09:22:30.588Z,355
2018-03-23T09:23:30.586Z,350
2018-03-23T09:24:30.592Z,345
2018-03-23T09:25:30.294Z,345
2018-03-23T09:26:30.542Z,340
2018-03-23T09:27:30.561Z,320
2018-03-23T09:28:30.334Z,310
2018-03-23T09:29:30.569Z,310
2018-03-23T09:30:30.250Z,310
2018-03-23T09:31:30.620Z,310
2018-03-23T09:32:30.524Z,310
2018-03-23T09:33:30.266Z,310
2018-03-23T09:34:30.486Z,305
2018-03-23T09:35:30.486Z,295
2018-03-23T09:36:30.537Z,300
2018-03-23T09:37:30.458Z,305
2018-03-23T09:38:30.205Z,305
2018-03-23T09:39:30.301Z,310
2018-03-23T09:40:30.484Z,300
2018-03-23T09:41:30.558Z,285
2018-03-23T09:42:30.288Z,280
2018-03-23T09:43:30.298Z,270
2018-03-23T09:44:30.360Z,260
2018-03-23T09:45:30.452Z,265
2018-03-23T09:46:30.436Z,270
2018-03-23T09:47:30.200Z,265
2018-03-23T09:48:30.437Z,265
2018-03-23T09:49:30.456Z,260
2018-03-23T09:50:30.341Z,260
2018-03-23T09:51:30.453Z,280
2018-03-23T09:52:30.167Z,310
2018-03-23T09:53:30.429Z,315
2018-03-23T09:54:30.064Z,315
2018-03-23T09:55:30.326Z,305
2018-03-23T09:56:30.324Z,300
2018-03-23T09:57:30.008Z,300
2018-03-23T09:58:30.265Z,300
2018-03-23T09:59:30.258Z,300
2018-03-23T10:00:30.285Z,290
2018-03-23T10:01:30.233Z,275
2018-03-23T10:02:30.223Z,260
2018-03-23T10:03:29.732Z,255
2018-03-23T10:04:29.973Z,255
2018-03-23T10:05:30.098Z,260
2018-03-23T10:06:29.929Z,255
2018-03-23T10:07:30.174Z,265
2018-03-23T10:08:29.961Z,275
2018-03-23T10:09:29.619Z,285
2018-03-23T10:10:29.629Z,290
2018-03-23T10:11:30.111Z,300
2018-03-23T10:12:29.831Z,300
2018-03-23T10:13:29.949Z,290
2018-03-23T10:14:29.841Z,300
2018-03-23T10:15:29.970Z,310
2018-03-23T10:16:30.061Z,305
2018-03-23T10:17:29.829Z,310
2018-03-23T10:18:29.559Z,320
2018-03-23T10:19:30.058Z,330
2018-03-23T10:20:30.039Z,350
2018-03-23T10:21:30.086Z,375
2018-03-23T10:22:29.776Z,405
2018-03-23T10:23:29.474Z,425
2018-03-23T10:24:30.082Z,420
2018-03-23T10:25:29.742Z,410
2018-03-23T10:26:29.515Z,415
2018-03-23T10:27:29.690Z,410
2018-03-23T10:28:30.015Z,400
2018-03-23T10:29:29.696Z,390
2018-03-23T10:30:29.668Z,395
2018-03-23T10:31:29.681Z,385
2018-03-23T10:32:29.930Z,370
2018-03-23T10:33:29.908Z,365
2018-03-23T10:34:29.686Z,380
2018-03-23T10:35:29.531Z,425
2018-03-23T10:36:29.411Z,460
2018-03-23T10:37:29.685Z,485
2018-03-23T10:38:29.614Z,495
2018-03-23T10:39:29.584Z,505
2018-03-23T10:40:29.826Z,530
2018-03-23T10:41:29.830Z,570
2018-03-23T10:42:29.556Z,580
2018-03-23T10:43:29.811Z,570
2018-03-23T10:44:29.564Z,560
2018-03-23T10:45:29.837Z,540
2018-03-23T10:46:29.529Z,550
2018-03-23T10:47:29.767Z,555
2018-03-23T10:48:28.999Z,530
2018-03-23T10:49:29.507Z,505
2018-03-23T10:50:29.785Z,485
2018-03-23T10:51:29.255Z,455
2018-03-23T10:52:29.479Z,440
2018-03-23T10:53:29.531Z,420
2018-03-23T10:54:29.236Z,405
2018-03-23T10:55:29.716Z,385
2018-03-23T10:56:29.504Z,375
2018-03-23T10:57:29.487Z,355
2018-03-23T10:58:29.559Z,330
2018-03-23T10:59:29.204Z,315
2018-03-23T11:00:29.721Z,310
2018-03-23T11:01:29.662Z,310
2018-03-23T11:02:29.660Z,315
2018-03-23T11:03:29.661Z,330
2018-03-23T11:04:29.655Z,340
2018-03-23T11:05:29.116Z,335
2018-03-23T11:06:29.372Z,320
2018-03-23T11:07:29.366Z,305
2018-03-23T11:08:30.012Z,305
2018-03-23T11:09:29.338Z,310
2018-03-23T11:10:29.602Z,315
2018-03-23T11:11:29.563Z,330
2018-03-23T11:12:29.325Z,340
2018-03-23T11:13:29.547Z,345
2018-03-23T11:14:28.783Z,350
2018-03-23T11:15:29.300Z,345
2018-03-23T11:16:29.043Z,345
2018-03-23T11:17:29.280Z,340
2018-03-23T11:18:29.279Z,325
2018-03-23T11:19:28.999Z,310
2018-03-23T11:20:29.485Z,295
2018-03-23T11:21:29.285Z,275
2018-03-23T11:22:29.236Z,265
2018-03-23T11:23:29.011Z,265
2018-03-23T11:24:29.039Z,255
2018-03-23T11:25:29.204Z,250
2018-03-23T11:26:29.496Z,255
2018-03-23T11:27:29.205Z,260
2018-03-23T11:28:29.456Z,270
2018-03-23T11:29:29.208Z,290
2018-03-23T11:30:29.434Z,300
2018-03-23T11:31:28.651Z,295
2018-03-23T11:32:29.144Z,290
2018-03-23T11:33:29.414Z,285
2018-03-23T11:34:29.136Z,280
2018-03-23T11:35:29.367Z,280
2018-03-23T11:36:29.354Z,280
2018-03-23T11:37:29.106Z,285
2018-03-23T11:38:29.638Z,290
2018-03-23T11:39:29.083Z,300
2018-03-23T11:40:29.326Z,300
2018-03-23T11:41:29.397Z,305
2018-03-23T11:42:28.870Z,305
2018-03-23T11:43:29.383Z,300
2018-03-23T11:44:29.124Z,315
2018-03-23T11:45:29.024Z,335
2018-03-23T11:46:29.263Z,360
2018-03-23T11:47:29.324Z,380
2018-03-23T11:48:29.334Z,385
2018-03-23T11:49:28.737Z,380
2018-03-23T11:50:29.255Z,350
2018-03-23T11:51:29.019Z,320
2018-03-23T11:52:28.974Z,310
2018-03-23T11:53:28.976Z,315
2018-03-23T11:54:28.953Z,315
2018-03-23T11:55:29.206Z,325
2018-03-23T11:56:29.023Z,330
2018-03-23T11:57:29.176Z,340
2018-03-23T11:58:29.155Z,330
2018-03-23T11:59:28.894Z,320
2018-03-23T12:00:28.681Z,305
2018-03-23T12:01:28.884Z,290
2018-03-23T12:02:28.629Z,285
2018-03-23T12:03:28.860Z,285
2018-03-23T12:04:28.600Z,280
2018-03-23T12:05:29.105Z,275
2018-03-23T12:06:29.102Z,270
2018-03-23T12:07:28.680Z,270
2018-03-23T12:08:29.091Z,265
2018-03-23T12:09:28.552Z,280
2018-03-23T12:10:29.065Z,290
2018-03-23T12:11:29.049Z,290
2018-03-23T12:12:29.026Z,290
2018-03-23T12:13:28.994Z,300
2018-03-23T12:14:29.119Z,310
2018-03-23T12:15:29.016Z,320
2018-03-23T12:16:28.989Z,325
2018-03-23T12:17:29.014Z,335
2018-03-23T12:18:28.975Z,335
2018-03-23T12:19:28.730Z,330
2018-03-23T12:20:28.956Z,325
2018-03-23T12:21:28.697Z,310
2018-03-23T12:22:28.432Z,305
2018-03-23T12:23:28.707Z,305
2018-03-23T12:24:28.439Z,310
2018-03-23T12:25:28.930Z,315
2018-03-23T12:26:28.413Z,315
2018-03-23T12:27:28.682Z,305
2018-03-23T12:28:28.642Z,280
2018-03-23T12:29:28.871Z,265
2018-03-23T12:30:28.618Z,255
2018-03-23T12:31:28.890Z,255
2018-03-23T12:32:28.614Z,255
2018-03-23T12:33:29.318Z,265
2018-03-23T12:34:28.587Z,285
2018-03-23T12:35:28.816Z,305
2018-03-23T12:36:28.304Z,325
2018-03-23T12:37:28.305Z,360
2018-03-23T12:38:28.797Z,385
2018-03-23T12:39:28.873Z,410
2018-03-23T12:40:28.536Z,430
2018-03-23T12:41:28.523Z,440
2018-03-23T12:42:28.772Z,450
2018-03-23T12:43:28.518Z,450
2018-03-23T12:44:28.490Z,440
2018-03-23T12:45:28.527Z,430
2018-03-23T12:46:28.732Z,410
2018-03-23T12:47:28.453Z,385
2018-03-23T12:48:28.739Z,370
2018-03-23T12:49:28.206Z,355
2018-03-23T12:50:28.212Z,350
2018-03-23T12:51:28.689Z,355
2018-03-23T12:52:28.633Z,365
2018-03-23T12:53:28.432Z,380
2018-03-23T12:54:28.156Z,380
2018-03-23T12:55:28.418Z,380
2018-03-23T12:56:28.507Z,380
2018-03-23T12:57:28.137Z,380
2018-03-23T12:58:28.376Z,385
2018-03-23T12:59:28.650Z,390
2018-03-23T13:00:28.615Z,390
2018-03-23T13:01:28.631Z,380
2018-03-23T13:02:28.601Z,370
2018-03-23T13:03:28.338Z,345
2018-03-23T13:04:28.357Z,320
2018-03-23T13:05:28.583Z,310
2018-03-23T13:06:28.596Z,300
2018-03-23T13:07:28.054Z,300
2018-03-23T13:08:28.553Z,300
2018-03-23T13:09:28.099Z,295
2018-03-23T13:10:28.531Z,280
2018-03-23T13:11:28.278Z,260
2018-03-23T13:12:28.028Z,240
2018-03-23T13:13:28.260Z,220
2018-03-23T13:14:28.506Z,205
2018-03-23T13:15:28.253Z,195
2018-03-23T13:16:28.234Z,190
2018-03-23T13:17:28.254Z,180
2018-03-23T13:18:27.975Z,175
2018-03-23T13:19:28.218Z,170
2018-03-23T13:20:28.251Z,170
2018-03-23T13:21:27.964Z,170
2018-03-23T13:22:28.190Z,175
2018-03-23T13:23:27.941Z,175
2018-03-23T13:24:28.188Z,180
2018-03-23T13:25:28.423Z,190
2018-03-23T13:26:28.419Z,195
2018-03-23T13:27:27.889Z,195
2018-03-23T13:28:28.160Z,200
2018-03-23T13:29:27.906Z,200
2018-03-23T13:30:28.193Z,205
2018-03-23T13:31:28.370Z,210
2018-03-23T13:32:27.852Z,220
2018-03-23T13:33:28.088Z,235
2018-03-23T13:34:27.846Z,250
2018-03-23T13:35:28.080Z,260
2018-03-23T13:36:28.327Z,260
2018-03-23T13:37:28.376Z,270
2018-03-23T13:38:28.047Z,275
2018-03-23T13:39:28.045Z,280
2018-03-23T13:40:28.326Z,275
2018-03-23T13:41:28.288Z,270
2018-03-23T13:42:27.788Z,265
2018-03-23T13:43:28.277Z,255
2018-03-23T13:44:27.763Z,240
2018-03-23T13:45:28.020Z,230
2018-03-23T13:46:28.256Z,225
2018-03-23T13:47:27.729Z,215
2018-03-23T13:48:27.988Z,210
2018-03-23T13:49:28.477Z,210
2018-03-23T13:50:28.299Z,210
2018-03-23T13:51:28.230Z,220
2018-03-23T13:52:27.721Z,225
2018-03-23T13:53:27.925Z,230
2018-03-23T13:54:27.419Z,235
2018-03-23T13:55:28.206Z,235
2018-03-23T13:56:27.933Z,235
2018-03-23T13:57:27.938Z,240
2018-03-23T13:58:28.200Z,240
2018-03-23T13:59:28.209Z,240
2018-03-23T14:00:27.859Z,240
2018-03-23T14:01:28.329Z,240
2018-03-23T14:02:27.675Z,235
2018-03-23T14:03:27.847Z,235
2018-03-23T14:04:27.607Z,235
2018-03-23T14:05:28.106Z,235
2018-03-23T14:06:28.085Z,240
2018-03-23T14:07:27.800Z,245
2018-03-23T14:08:28.050Z,250
2018-03-23T14:09:28.027Z,255
2018-03-23T14:10:28.021Z,250